Time;durP1;ratioP1;P1;durP2;ratioP2;P2;SDS_P1;SDS_P2;PMS_P1;PMS_P2;Temp;Humidity;BMP_temperature;BMP_pressure;BME280_temperature;BME280_humidity;BME280_pressure;Samples;Min_cycle;Max_cycle;Signal;HPM_P1;HPM_P2
2022/01/07 00:00:42;;;;;;;23.75;8.20;;;;;;;;;;5031816;28;20056;-68
2022/01/07 00:03:08;;;;;;;24.30;9.55;;;;;;;;;;5033735;28;20045;-67
2022/01/07 00:05:35;;;;;;;20.92;7.65;;;;;;;;;;5032142;28;20045;-67
2022/01/07 00:08:01;;;;;;;19.05;7.95;;;;;;;;;;5052247;28;20094;-67
2022/01/07 00:10:27;;;;;;;18.00;7.72;;;;;;;;;;5053540;28;20049;-67
2022/01/07 00:12:53;;;;;;;19.23;7.90;;;;;;;;;;5052256;28;20048;-68
2022/01/07 00:15:19;;;;;;;18.92;6.93;;;;;;;;;;5052632;28;20423;-68
2022/01/07 00:17:45;;;;;;;17.48;6.95;;;;;;;;;;5053858;28;20125;-66
2022/01/07 00:20:12;;;;;;;18.60;6.88;;;;;;;;;;5051993;28;20045;-66
2022/01/07 00:22:39;;;;;;;18.48;6.55;;;;;;;;;;5035906;28;20098;-66
2022/01/07 00:25:06;;;;;;;20.20;6.90;;;;;;;;;;5052313;28;20178;-67
2022/01/07 00:27:31;;;;;;;22.27;7.18;;;;;;;;;;5053679;28;20052;-67
2022/01/07 00:29:58;;;;;;;16.13;6.40;;;;;;;;;;5052696;28;20052;-68
2022/01/07 00:32:24;;;;;;;24.05;7.45;;;;;;;;;;5051957;28;20064;-67
2022/01/07 00:34:50;;;;;;;19.98;7.20;;;;;;;;;;5052065;28;20049;-68
2022/01/07 00:37:16;;;;;;;35.83;9.73;;;;;;;;;;5053233;28;20059;-68
2022/01/07 00:39:42;;;;;;;22.33;7.88;;;;;;;;;;5054983;28;20092;-68
2022/01/07 00:42:08;;;;;;;13.98;5.82;;;;;;;;;;5057436;28;20077;-67
2022/01/07 00:44:34;;;;;;;20.48;7.10;;;;;;;;;;5055686;28;20040;-68
2022/01/07 00:47:00;;;;;;;17.73;6.22;;;;;;;;;;5055804;28;20425;-68
2022/01/07 00:49:26;;;;;;;18.15;6.38;;;;;;;;;;5055611;28;20087;-68
2022/01/07 00:51:52;;;;;;;14.77;6.13;;;;;;;;;;5055430;28;20506;-68
2022/01/07 00:54:18;;;;;;;14.27;5.75;;;;;;;;;;5055278;28;20097;-68
2022/01/07 00:56:45;;;;;;;16.17;5.63;;;;;;;;;;5055823;28;20053;-67
2022/01/07 00:59:11;;;;;;;18.70;6.22;;;;;;;;;;5056761;28;20053;-67
2022/01/07 01:01:37;;;;;;;16.17;6.05;;;;;;;;;;5055534;28;20400;-68
2022/01/07 01:04:03;;;;;;;19.67;6.30;;;;;;;;;;5055150;28;20087;-68
2022/01/07 01:06:29;;;;;;;14.75;5.90;;;;;;;;;;5056624;28;20371;-67
2022/01/07 01:08:55;;;;;;;20.90;6.85;;;;;;;;;;5055223;28;20052;-68
2022/01/07 01:11:22;;;;;;;18.13;6.18;;;;;;;;;;5038520;28;20098;-68
2022/01/07 01:13:48;;;;;;;20.42;6.40;;;;;;;;;;5055414;28;20045;-68
2022/01/07 01:16:13;;;;;;;16.27;6.25;;;;;;;;;;5055449;28;20048;-67
2022/01/07 01:18:40;;;;;;;21.27;6.63;;;;;;;;;;5038589;28;20356;-67
2022/01/07 01:21:06;;;;;;;20.63;6.78;;;;;;;;;;5056118;28;20049;-68
2022/01/07 01:23:32;;;;;;;17.20;6.25;;;;;;;;;;5056683;28;20475;-68
2022/01/07 01:25:58;;;;;;;18.35;7.15;;;;;;;;;;5038162;28;20037;-68
2022/01/07 01:28:24;;;;;;;23.08;7.22;;;;;;;;;;5054708;28;20081;-68
2022/01/07 01:30:50;;;;;;;17.30;6.68;;;;;;;;;;5056351;28;20044;-68
2022/01/07 01:33:18;;;;;;;19.10;6.82;;;;;;;;;;5054430;28;20056;-68
2022/01/07 01:35:44;;;;;;;18.23;6.97;;;;;;;;;;5054699;28;20484;-68
2022/01/07 01:38:10;;;;;;;21.65;7.53;;;;;;;;;;5056143;28;20071;-68
2022/01/07 01:40:36;;;;;;;19.42;6.68;;;;;;;;;;5054513;28;20107;-68
2022/01/07 01:43:02;;;;;;;18.90;7.72;;;;;;;;;;5038241;28;20049;-68
2022/01/07 01:45:29;;;;;;;19.77;7.03;;;;;;;;;;5054443;28;20041;-69
2022/01/07 01:47:55;;;;;;;22.08;7.22;;;;;;;;;;5055858;28;20080;-68
2022/01/07 01:50:21;;;;;;;20.80;7.45;;;;;;;;;;5037038;28;20059;-68
2022/01/07 01:52:49;;;;;;;24.42;7.57;;;;;;;;;;5055842;28;20055;-69
2022/01/07 01:55:16;;;;;;;20.98;7.60;;;;;;;;;;5055898;28;20091;-69
2022/01/07 01:57:42;;;;;;;18.73;7.75;;;;;;;;;;5055541;28;20041;-68
2022/01/07 02:00:09;;;;;;;24.30;7.95;;;;;;;;;;5055420;28;20163;-68
2022/01/07 02:02:35;;;;;;;22.23;8.00;;;;;;;;;;5054516;28;20491;-69
2022/01/07 02:05:01;;;;;;;22.75;8.02;;;;;;;;;;5054062;28;20045;-68
2022/01/07 02:07:27;;;;;;;27.05;9.18;;;;;;;;;;5054141;28;20057;-69
2022/01/07 02:09:55;;;;;;;19.23;8.20;;;;;;;;;;5054263;28;20495;-68
2022/01/07 02:12:21;;;;;;;24.50;8.32;;;;;;;;;;5037543;28;20438;-67
2022/01/07 02:14:52;;;;;;;21.05;9.00;;;;;;;;;;5054875;28;20106;-68
2022/01/07 02:17:18;;;;;;;28.77;9.07;;;;;;;;;;5053636;28;20083;-68
2022/01/07 02:19:44;;;;;;;18.88;8.90;;;;;;;;;;5037415;28;20056;-68
2022/01/07 02:22:12;;;;;;;25.55;9.32;;;;;;;;;;5053789;28;20048;-68
2022/01/07 02:24:39;;;;;;;23.40;8.97;;;;;;;;;;5053871;28;20049;-68
2022/01/07 02:27:07;;;;;;;28.05;9.43;;;;;;;;;;5053941;28;20483;-68
2022/01/07 02:29:33;;;;;;;24.33;10.05;;;;;;;;;;5053768;28;20407;-69
2022/01/07 02:31:59;;;;;;;34.28;10.63;;;;;;;;;;5053397;28;20099;-69
2022/01/07 02:34:25;;;;;;;26.98;10.40;;;;;;;;;;5053539;28;20080;-69
2022/01/07 02:36:51;;;;;;;24.92;9.60;;;;;;;;;;5054371;28;20230;-68
2022/01/07 02:39:17;;;;;;;25.70;10.20;;;;;;;;;;5053605;28;20475;-68
2022/01/07 02:41:43;;;;;;;28.02;10.98;;;;;;;;;;5036891;28;20124;-69
2022/01/07 02:44:09;;;;;;;21.23;10.40;;;;;;;;;;5053241;28;20459;-68
2022/01/07 02:46:35;;;;;;;29.90;11.65;;;;;;;;;;5036792;28;20049;-68
2022/01/07 02:49:07;;;;;;;31.58;11.32;;;;;;;;;;5053513;28;20048;-68
2022/01/07 02:51:33;;;;;;;28.73;12.05;;;;;;;;;;5036710;28;20049;-69
2022/01/07 02:53:59;;;;;;;25.67;11.52;;;;;;;;;;5054438;28;20059;-68
2022/01/07 02:56:25;;;;;;;27.92;12.27;;;;;;;;;;5053724;28;20072;-71
2022/01/07 02:58:51;;;;;;;26.92;12.63;;;;;;;;;;5054937;28;20098;-68
2022/01/07 03:01:17;;;;;;;31.00;13.27;;;;;;;;;;5054026;28;20045;-68
2022/01/07 03:03:43;;;;;;;26.63;12.43;;;;;;;;;;5054218;28;20502;-68
2022/01/07 03:06:09;;;;;;;31.88;13.15;;;;;;;;;;5054503;28;20041;-68
2022/01/07 03:08:35;;;;;;;29.75;13.35;;;;;;;;;;5053393;28;20071;-69
2022/01/07 03:11:01;;;;;;;28.48;13.30;;;;;;;;;;5052956;28;20044;-69
2022/01/07 03:13:27;;;;;;;27.83;14.38;;;;;;;;;;5053926;28;20071;-70
2022/01/07 03:15:53;;;;;;;27.85;13.77;;;;;;;;;;5053154;28;20048;-69
2022/01/07 03:18:19;;;;;;;29.20;14.05;;;;;;;;;;5053013;28;20491;-69
2022/01/07 03:20:45;;;;;;;32.38;13.85;;;;;;;;;;5052906;28;20057;-69
2022/01/07 03:23:12;;;;;;;32.67;13.60;;;;;;;;;;5036835;28;20447;-69
2022/01/07 03:25:39;;;;;;;24.58;13.48;;;;;;;;;;5054146;28;20052;-68
2022/01/07 03:28:05;;;;;;;27.77;13.82;;;;;;;;;;5052806;28;20064;-69
2022/01/07 03:30:31;;;;;;;25.17;13.68;;;;;;;;;;5052533;28;20080;-68
2022/01/07 03:32:57;;;;;;;32.83;14.15;;;;;;;;;;5035948;28;20057;-69
2022/01/07 03:35:24;;;;;;;25.33;14.20;;;;;;;;;;5054098;28;20394;-69
2022/01/07 03:37:50;;;;;;;27.50;13.45;;;;;;;;;;5052518;28;20084;-69
2022/01/07 03:40:16;;;;;;;29.42;13.48;;;;;;;;;;5052623;28;20411;-70
2022/01/07 03:42:44;;;;;;;28.35;13.63;;;;;;;;;;5036139;28;20424;-68
2022/01/07 03:45:10;;;;;;;29.20;13.77;;;;;;;;;;5052765;28;20057;-68
2022/01/07 03:47:37;;;;;;;26.92;13.02;;;;;;;;;;5052597;28;20052;-69
2022/01/07 03:50:06;;;;;;;27.08;13.27;;;;;;;;;;5052770;28;20380;-69
2022/01/07 03:52:32;;;;;;;;;;;;;;;;;;5035971;28;20049;-69
2022/01/07 03:54:58;;;;;;;29.15;13.65;;;;;;;;;;5052234;28;19921;-68
2022/01/07 03:57:24;;;;;;;26.88;13.25;;;;;;;;;;5052540;28;20059;-68
2022/01/07 03:59:50;;;;;;;28.55;13.50;;;;;;;;;;5052021;28;20399;-68
2022/01/07 04:02:17;;;;;;;26.50;13.30;;;;;;;;;;5052332;28;20127;-69
2022/01/07 04:04:43;;;;;;;27.50;14.10;;;;;;;;;;5035744;28;20041;-68
2022/01/07 04:07:09;;;;;;;30.42;14.07;;;;;;;;;;5052455;28;20041;-68
2022/01/07 04:09:35;;;;;;;31.33;14.98;;;;;;;;;;5052276;28;20137;-68
2022/01/07 04:12:01;;;;;;;31.77;15.63;;;;;;;;;;5052288;28;20476;-68
2022/01/07 04:14:27;;;;;;;28.13;13.05;;;;;;;;;;5056594;28;20045;-68
2022/01/07 04:16:54;;;;;;;24.98;13.50;;;;;;;;;;5057348;28;20044;-68
2022/01/07 04:19:21;;;;;;;23.65;13.68;;;;;;;;;;5056193;28;20052;-68
2022/01/07 04:21:49;;;;;;;27.95;13.13;;;;;;;;;;5057513;28;20045;-68
2022/01/07 04:24:15;;;;;;;22.75;12.25;;;;;;;;;;5056487;28;20127;-68
2022/01/07 04:26:41;;;;;;;22.73;12.55;;;;;;;;;;5058134;28;20045;-68
2022/01/07 04:29:07;;;;;;;21.55;11.77;;;;;;;;;;5057148;28;20406;-68
2022/01/07 04:31:33;;;;;;;24.98;12.25;;;;;;;;;;5040045;28;20438;-68
2022/01/07 04:33:59;;;;;;;30.48;13.38;;;;;;;;;;5055954;28;20060;-69
2022/01/07 04:36:26;;;;;;;25.98;12.82;;;;;;;;;;5055994;28;20521;-68
2022/01/07 04:38:52;;;;;;;22.65;12.18;;;;;;;;;;5056467;28;20059;-68
2022/01/07 04:41:18;;;;;;;25.17;12.48;;;;;;;;;;5056058;28;20472;-68
2022/01/07 04:43:44;;;;;;;28.02;12.88;;;;;;;;;;5057135;28;20049;-69
2022/01/07 04:46:10;;;;;;;30.85;13.40;;;;;;;;;;5057320;28;20483;-67
2022/01/07 04:48:36;;;;;;;26.20;13.45;;;;;;;;;;5057512;28;20086;-69
2022/01/07 04:51:02;;;;;;;24.27;12.35;;;;;;;;;;5057105;28;20418;-68
2022/01/07 04:53:28;;;;;;;21.20;12.65;;;;;;;;;;5055848;28;20072;-67
2022/01/07 04:55:56;;;;;;;22.60;12.00;;;;;;;;;;5057169;28;20041;-68
2022/01/07 04:58:22;;;;;;;25.48;12.20;;;;;;;;;;5039486;28;20049;-67
2022/01/07 05:00:48;;;;;;;22.98;12.55;;;;;;;;;;5056593;28;20045;-67
2022/01/07 05:03:14;;;;;;;23.55;11.93;;;;;;;;;;5056994;28;20380;-68
2022/01/07 05:05:44;;;;;;;21.77;11.75;;;;;;;;;;5057197;28;20059;-67
2022/01/07 05:08:10;;;;;;;25.00;11.77;;;;;;;;;;5055261;28;20056;-67
2022/01/07 05:10:37;;;;;;;25.50;12.75;;;;;;;;;;5055453;28;20052;-68
2022/01/07 05:13:03;;;;;;;26.15;12.65;;;;;;;;;;5055677;28;20056;-68
2022/01/07 05:15:29;;;;;;;21.52;11.45;;;;;;;;;;5056669;28;20122;-68
2022/01/07 05:17:55;;;;;;;20.60;11.52;;;;;;;;;;5056325;28;20131;-68
2022/01/07 05:20:21;;;;;;;20.73;12.10;;;;;;;;;;5038435;28;20124;-68
2022/01/07 05:22:48;;;;;;;20.55;10.48;;;;;;;;;;5038230;28;20049;-68
2022/01/07 05:25:15;;;;;;;20.60;11.45;;;;;;;;;;5056268;28;20056;-68
2022/01/07 05:27:41;;;;;;;20.15;9.48;;;;;;;;;;5055220;28;20054;-68
2022/01/07 05:30:08;;;;;;;19.77;10.75;;;;;;;;;;5056158;28;20049;-68
2022/01/07 05:32:34;;;;;;;20.25;11.10;;;;;;;;;;5054378;28;20085;-68
2022/01/07 05:35:00;;;;;;;20.45;11.13;;;;;;;;;;5056137;28;20087;-67
2022/01/07 05:37:26;;;;;;;24.73;11.43;;;;;;;;;;5055167;28;20128;-67
2022/01/07 05:39:52;;;;;;;22.40;11.18;;;;;;;;;;5055805;28;20128;-67
2022/01/07 05:42:18;;;;;;;20.40;11.23;;;;;;;;;;5054678;28;20045;-68
2022/01/07 05:44:44;;;;;;;22.70;10.98;;;;;;;;;;5056022;28;20045;-68
2022/01/07 05:47:10;;;;;;;27.25;11.32;;;;;;;;;;5055856;28;20055;-68
2022/01/07 05:49:36;;;;;;;18.75;10.52;;;;;;;;;;5054637;28;20044;-68
2022/01/07 05:52:02;;;;;;;20.85;10.35;;;;;;;;;;5054648;28;20049;-68
2022/01/07 05:54:29;;;;;;;15.80;9.45;;;;;;;;;;5054963;28;20041;-67
2022/01/07 05:56:55;;;;;;;24.15;11.25;;;;;;;;;;5038046;28;20476;-69
2022/01/07 05:59:20;;;;;;;18.95;10.48;;;;;;;;;;5055614;28;20049;-68
2022/01/07 06:01:47;;;;;;;17.35;9.98;;;;;;;;;;5054427;28;20044;-68
2022/01/07 06:04:12;;;;;;;19.95;10.57;;;;;;;;;;5037899;28;20041;-68
2022/01/07 06:06:38;;;;;;;16.67;9.07;;;;;;;;;;5055591;28;20129;-68
2022/01/07 06:09:04;;;;;;;20.75;10.70;;;;;;;;;;5037839;28;20041;-69
2022/01/07 06:11:30;;;;;;;16.23;9.95;;;;;;;;;;5054226;28;20056;-68
2022/01/07 06:13:56;;;;;;;20.88;10.82;;;;;;;;;;5055696;28;20072;-68
2022/01/07 06:16:22;;;;;;;20.35;10.27;;;;;;;;;;5055313;28;20037;-67
2022/01/07 06:18:54;;;;;;;16.95;9.88;;;;;;;;;;5054426;28;20052;-68
2022/01/07 06:21:20;;;;;;;17.83;10.20;;;;;;;;;;5055365;28;20080;-67
2022/01/07 06:23:46;;;;;;;16.70;9.48;;;;;;;;;;5055123;28;20531;-67
2022/01/07 06:26:12;;;;;;;18.98;10.27;;;;;;;;;;5053674;28;20080;-68
2022/01/07 06:28:38;;;;;;;16.20;9.45;;;;;;;;;;5054814;28;20048;-68
2022/01/07 06:31:04;;;;;;;16.55;9.77;;;;;;;;;;5055050;28;20066;-67
2022/01/07 06:33:30;;;;;;;15.57;9.52;;;;;;;;;;5053517;28;20048;-67
2022/01/07 06:35:56;;;;;;;16.23;9.93;;;;;;;;;;5054436;28;20061;-67
2022/01/07 06:38:22;;;;;;;14.00;9.23;;;;;;;;;;5036909;28;20509;-68
2022/01/07 06:40:48;;;;;;;19.75;9.80;;;;;;;;;;5037322;28;20049;-68
2022/01/07 06:43:14;;;;;;;17.60;9.88;;;;;;;;;;5054773;28;20103;-67
2022/01/07 06:45:40;;;;;;;16.30;9.93;;;;;;;;;;5054885;28;20053;-67
2022/01/07 06:48:06;;;;;;;14.50;9.52;;;;;;;;;;5053603;28;20049;-67
2022/01/07 06:50:32;;;;;;;15.98;9.68;;;;;;;;;;5053668;28;20076;-68
2022/01/07 06:52:58;;;;;;;16.48;10.00;;;;;;;;;;5037141;28;20502;-67
2022/01/07 06:55:24;;;;;;;16.85;9.60;;;;;;;;;;5036842;28;20049;-68
2022/01/07 06:57:50;;;;;;;18.42;9.85;;;;;;;;;;5036840;28;20451;-68
2022/01/07 07:00:16;;;;;;;17.10;10.15;;;;;;;;;;5053192;28;20060;-68
2022/01/07 07:02:42;;;;;;;17.00;9.73;;;;;;;;;;5036760;28;20052;-67
2022/01/07 07:05:09;;;;;;;14.70;9.73;;;;;;;;;;5053243;28;20044;-68
2022/01/07 07:07:35;;;;;;;17.13;10.32;;;;;;;;;;5036663;28;20044;-68
2022/01/07 07:10:01;;;;;;;15.88;9.73;;;;;;;;;;5053076;28;20041;-68
2022/01/07 07:12:27;;;;;;;16.60;10.05;;;;;;;;;;5054302;28;20048;-67
2022/01/07 07:14:53;;;;;;;18.05;10.80;;;;;;;;;;5052854;28;20049;-67
2022/01/07 07:17:19;;;;;;;18.25;11.07;;;;;;;;;;5059509;28;20055;-68
2022/01/07 07:19:45;;;;;;;23.08;11.40;;;;;;;;;;5060264;28;20045;-67
2022/01/07 07:22:11;;;;;;;16.25;10.85;;;;;;;;;;5054013;28;20055;-67
2022/01/07 07:24:37;;;;;;;19.00;11.02;;;;;;;;;;5053040;28;20041;-68
2022/01/07 07:27:03;;;;;;;32.17;13.48;;;;;;;;;;5054319;28;20098;-67
2022/01/07 07:29:29;;;;;;;21.65;11.55;;;;;;;;;;5036269;28;20051;-68
2022/01/07 07:31:57;;;;;;;22.02;11.80;;;;;;;;;;5053844;28;20124;-67
2022/01/07 07:37:04;;;;;;;20.35;11.85;;;;;;;;;;5052468;28;20052;-68
2022/01/07 07:39:30;;;;;;;22.23;12.50;;;;;;;;;;5053023;28;20438;-69
2022/01/07 07:41:56;;;;;;;21.00;12.70;;;;;;;;;;5054056;28;20049;-68
2022/01/07 07:44:22;;;;;;;76.78;21.48;;;;;;;;;;5052913;28;20072;-67
2022/01/07 07:46:48;;;;;;;161.73;35.78;;;;;;;;;;5052417;28;20084;-67
2022/01/07 07:49:15;;;;;;;34.67;15.05;;;;;;;;;;5035121;28;20048;-67
2022/01/07 07:51:41;;;;;;;34.00;15.52;;;;;;;;;;5053593;28;20049;-68
2022/01/07 07:54:08;;;;;;;41.03;15.30;;;;;;;;;;5052443;28;20475;-67
2022/01/07 07:56:34;;;;;;;38.00;15.00;;;;;;;;;;5052542;28;20049;-67
2022/01/07 07:59:00;;;;;;;62.10;20.73;;;;;;;;;;5053520;28;20419;-68
2022/01/07 08:01:26;;;;;;;40.70;17.60;;;;;;;;;;5035515;28;20049;-67
2022/01/07 08:03:53;;;;;;;122.40;28.00;;;;;;;;;;5052115;28;20048;-67
2022/01/07 08:06:19;;;;;;;30.77;14.90;;;;;;;;;;5052186;28;20369;-67
2022/01/07 08:08:46;;;;;;;31.52;15.38;;;;;;;;;;5053176;28;20116;-67
2022/01/07 08:11:13;;;;;;;31.50;14.98;;;;;;;;;;5035337;28;20128;-67
2022/01/07 08:16:24;;;;;;;32.50;16.33;;;;;;;;;;5053130;28;20080;-67
2022/01/07 08:18:53;;;;;;;37.67;17.23;;;;;;;;;;5035261;28;20403;-67
2022/01/07 08:21:19;;;;;;;26.73;14.98;;;;;;;;;;5051664;28;20484;-68
2022/01/07 08:23:46;;;;;;;41.15;16.88;;;;;;;;;;5051924;28;20060;-67
2022/01/07 08:26:13;;;;;;;32.78;17.13;;;;;;;;;;5035035;28;20051;-67
2022/01/07 08:28:52;;;;;;;40.33;17.60;;;;;;;;;;5051581;28;20095;-67
2022/01/07 08:36:30;;;;;;;29.88;17.08;;;;;;;;;;5053097;28;20037;-67
2022/01/07 08:38:57;;;;;;;37.60;17.30;;;;;;;;;;5051937;28;20068;-67
2022/01/07 08:41:24;;;;;;;32.60;17.77;;;;;;;;;;5051326;28;20450;-68
2022/01/07 08:43:50;;;;;;;52.80;20.45;;;;;;;;;;5035016;28;20045;-67
2022/01/07 08:46:16;;;;;;;35.75;17.98;;;;;;;;;;5034880;28;20075;-67
2022/01/07 08:48:42;;;;;;;34.85;18.98;;;;;;;;;;5053084;28;20052;-67
2022/01/07 08:51:09;;;;;;;35.97;18.77;;;;;;;;;;5051332;28;20056;-68
2022/01/07 08:53:35;;;;;;;33.90;18.50;;;;;;;;;;5051272;28;20041;-67
2022/01/07 08:56:01;;;;;;;37.10;18.80;;;;;;;;;;5052821;28;20098;-68
2022/01/07 08:58:27;;;;;;;37.60;19.38;;;;;;;;;;5052967;28;20153;-68
2022/01/07 09:00:53;;;;;;;40.00;19.30;;;;;;;;;;5038352;28;20045;-68
2022/01/07 09:03:20;;;;;;;39.08;19.70;;;;;;;;;;5056824;28;20045;-67
2022/01/07 09:05:45;;;;;;;36.17;18.50;;;;;;;;;;5055900;28;20399;-68
2022/01/07 09:08:12;;;;;;;35.95;18.25;;;;;;;;;;5055079;28;20056;-68
2022/01/07 09:10:41;;;;;;;36.47;17.98;;;;;;;;;;5054050;28;20453;-67
2022/01/07 09:13:07;;;;;;;;;;;;;;;;;;5047382;28;20046;-67
2022/01/07 09:15:33;;;;;;;33.13;18.05;;;;;;;;;;5044733;28;19921;-66
2022/01/07 09:17:59;;;;;;;44.30;19.83;;;;;;;;;;5044445;28;20080;-66
2022/01/07 09:20:25;;;;;;;37.10;19.05;;;;;;;;;;5046270;28;20081;-67
2022/01/07 09:22:51;;;;;;;39.30;19.67;;;;;;;;;;5043230;28;20404;-67
2022/01/07 09:25:17;;;;;;;36.40;19.60;;;;;;;;;;5044766;28;20044;-68
2022/01/07 09:27:43;;;;;;;62.97;22.90;;;;;;;;;;5045941;28;20472;-68
2022/01/07 09:30:13;;;;;;;40.13;19.15;;;;;;;;;;5042974;28;20033;-68
2022/01/07 09:32:39;;;;;;;46.40;21.10;;;;;;;;;;5044407;28;20098;-67
2022/01/07 09:35:06;;;;;;;37.05;19.42;;;;;;;;;;5045284;28;20131;-67
2022/01/07 09:37:32;;;;;;;40.10;19.67;;;;;;;;;;5046382;28;20041;-67
2022/01/07 09:40:00;;;;;;;34.75;19.23;;;;;;;;;;5044769;28;20084;-67
2022/01/07 09:42:27;;;;;;;35.88;19.38;;;;;;;;;;5044588;28;20098;-67
2022/01/07 09:44:53;;;;;;;38.13;18.92;;;;;;;;;;5044707;28;20403;-67
2022/01/07 09:47:18;;;;;;;39.90;19.50;;;;;;;;;;5043699;28;20038;-67
2022/01/07 09:49:44;;;;;;;34.10;19.17;;;;;;;;;;5043141;28;20552;-68
2022/01/07 09:52:10;;;;;;;41.45;18.85;;;;;;;;;;5029089;28;20045;-68
2022/01/07 09:54:38;;;;;;;41.97;19.15;;;;;;;;;;5043804;28;20047;-68
2022/01/07 09:57:06;;;;;;;32.58;18.63;;;;;;;;;;5044626;28;20095;-67
2022/01/07 09:59:32;;;;;;;31.77;18.15;;;;;;;;;;5045917;28;20388;-68
2022/01/07 10:02:05;;;;;;;35.88;18.50;;;;;;;;;;5041939;28;20547;-68
2022/01/07 10:04:39;;;;;;;38.45;19.77;;;;;;;;;;5044773;28;20512;-68
2022/01/07 10:07:10;;;;;;;35.55;18.92;;;;;;;;;;5045412;28;20053;-68
2022/01/07 10:09:36;;;;;;;35.05;18.95;;;;;;;;;;5045771;28;20411;-67
2022/01/07 10:12:03;;;;;;;32.78;17.92;;;;;;;;;;5044121;28;20048;-67
2022/01/07 10:14:30;;;;;;;30.10;18.90;;;;;;;;;;5025963;28;20041;-67
2022/01/07 10:16:57;;;;;;;35.03;19.80;;;;;;;;;;5045022;28;20053;-67
2022/01/07 10:19:45;;;;;;;38.95;19.40;;;;;;;;;;5042687;28;20044;-68
2022/01/07 10:22:15;;;;;;;68.03;23.05;;;;;;;;;;5050148;28;20056;-67
2022/01/07 10:25:01;;;;;;;78.70;25.70;;;;;;;;;;5055275;28;20123;-67
2022/01/07 10:27:38;;;;;;;38.20;19.75;;;;;;;;;;5054224;28;20510;-68
2022/01/07 10:30:11;;;;;;;39.42;19.52;;;;;;;;;;5053379;28;20048;-67
2022/01/07 10:32:37;;;;;;;37.03;17.88;;;;;;;;;;5055025;28;20053;-67
2022/01/07 10:35:23;;;;;;;34.05;18.55;;;;;;;;;;5062518;28;20510;-67
2022/01/07 10:37:50;;;;;;;34.42;19.05;;;;;;;;;;5065463;28;20044;-67
2022/01/07 10:40:23;;;;;;;34.65;15.98;;;;;;;;;;5057142;28;20052;-67
2022/01/07 10:42:50;;;;;;;24.98;14.02;;;;;;;;;;5053497;28;20130;-67
2022/01/07 10:45:16;;;;;;;18.73;10.60;;;;;;;;;;5054723;28;20526;-67
2022/01/07 10:47:42;;;;;;;10.48;6.63;;;;;;;;;;5054709;28;20119;-68
2022/01/07 10:50:18;;;;;;;12.25;6.63;;;;;;;;;;5053406;28;20041;-67
2022/01/07 10:52:44;;;;;;;13.32;4.88;;;;;;;;;;5053469;28;20048;-67
2022/01/07 10:55:10;;;;;;;34.50;7.43;;;;;;;;;;5053201;28;20076;-67
2022/01/07 10:57:38;;;;;;;42.25;8.60;;;;;;;;;;5054720;28;20075;-67
2022/01/07 11:00:08;;;;;;;6.85;2.72;;;;;;;;;;5052963;28;20107;-67
2022/01/07 11:02:35;;;;;;;9.30;3.42;;;;;;;;;;5036383;28;20487;-68
2022/01/07 11:05:01;;;;;;;6.32;2.90;;;;;;;;;;5054421;28;20436;-67
2022/01/07 11:07:28;;;;;;;5.82;3.08;;;;;;;;;;5053031;28;20051;-68
2022/01/07 11:09:56;;;;;;;12.18;4.15;;;;;;;;;;5054445;28;20075;-67
2022/01/07 11:12:23;;;;;;;12.98;4.00;;;;;;;;;;5054091;28;20057;-67
2022/01/07 11:14:49;;;;;;;15.60;4.97;;;;;;;;;;5054194;28;20049;-67
2022/01/07 11:17:21;;;;;;;9.43;4.63;;;;;;;;;;5035918;28;20399;-67
2022/01/07 11:19:52;;;;;;;8.48;5.28;;;;;;;;;;5053192;28;20048;-68
2022/01/07 11:22:19;;;;;;;14.27;6.78;;;;;;;;;;5052280;28;20049;-67
2022/01/07 11:25:11;;;;;;;13.32;6.95;;;;;;;;;;5036144;28;20052;-66
2022/01/07 11:27:58;;;;;;;20.55;9.23;;;;;;;;;;5038706;28;20088;-66
2022/01/07 11:30:28;;;;;;;23.40;9.57;;;;;;;;;;5036833;28;20127;-67
2022/01/07 11:32:54;;;;;;;18.40;9.73;;;;;;;;;;5035740;28;20060;-65
2022/01/07 11:35:20;;;;;;;41.35;13.40;;;;;;;;;;5060116;28;20081;-66
2022/01/07 11:37:46;;;;;;;35.85;14.80;;;;;;;;;;5054642;28;20402;-66
2022/01/07 11:40:32;;;;;;;236.55;53.10;;;;;;;;;;5053693;28;20041;-66
2022/01/07 11:42:59;;;;;;;172.00;41.55;;;;;;;;;;5035276;28;20154;-67
2022/01/07 11:45:29;;;;;;;116.50;30.65;;;;;;;;;;5052237;28;20049;-67
2022/01/07 11:48:09;;;;;;;33.95;16.85;;;;;;;;;;5035705;28;20392;-67
2022/01/07 11:51:04;;;;;;;34.80;16.83;;;;;;;;;;5053460;28;20128;-67
2022/01/07 11:53:41;;;;;;;67.07;22.08;;;;;;;;;;5035101;28;20097;-67
2022/01/07 11:56:11;;;;;;;58.70;20.13;;;;;;;;;;5052369;28;20049;-67
2022/01/07 11:58:44;;;;;;;66.07;20.73;;;;;;;;;;5053420;28;20045;-67
2022/01/07 12:01:30;;;;;;;51.75;17.98;;;;;;;;;;5052127;28;20150;-68
2022/01/07 12:03:57;;;;;;;31.30;15.10;;;;;;;;;;5052304;28;20486;-67
2022/01/07 12:06:23;;;;;;;14.60;9.15;;;;;;;;;;5035586;28;20052;-68
2022/01/07 12:08:55;;;;;;;14.88;7.10;;;;;;;;;;5052721;28;20044;-67
2022/01/07 12:11:23;;;;;;;15.68;4.68;;;;;;;;;;5054551;28;20059;-67
2022/01/07 12:13:48;;;;;;;12.85;4.13;;;;;;;;;;5039068;28;20132;-68
2022/01/07 12:16:18;;;;;;;5.93;2.05;;;;;;;;;;5051918;28;20131;-68
2022/01/07 12:18:44;;;;;;;3.53;1.23;;;;;;;;;;5053057;28;20132;-68
2022/01/07 12:21:11;;;;;;;4.60;1.70;;;;;;;;;;5053453;28;20472;-67
2022/01/07 12:23:39;;;;;;;5.18;1.77;;;;;;;;;;5053140;28;20079;-67
2022/01/07 12:26:05;;;;;;;7.65;1.38;;;;;;;;;;5051792;28;20087;-67
2022/01/07 12:28:39;;;;;;;6.47;1.40;;;;;;;;;;5052273;28;20529;-67
2022/01/07 12:31:05;;;;;;;18.00;3.22;;;;;;;;;;5035486;28;20442;-67
2022/01/07 12:33:31;;;;;;;6.68;1.83;;;;;;;;;;5051553;28;20052;-67
2022/01/07 12:35:57;;;;;;;7.47;1.42;;;;;;;;;;5055686;28;20045;-67
2022/01/07 12:38:23;;;;;;;7.35;1.20;;;;;;;;;;5057448;28;20057;-67
2022/01/07 12:40:57;;;;;;;27.58;4.00;;;;;;;;;;5056802;28;20393;-68
2022/01/07 12:43:29;;;;;;;8.18;1.52;;;;;;;;;;5056228;28;20175;-67
2022/01/07 12:46:03;;;;;;;5.30;0.85;;;;;;;;;;5057555;28;20076;-68
2022/01/07 12:48:37;;;;;;;7.40;1.20;;;;;;;;;;5055530;28;20495;-67
2022/01/07 12:51:03;;;;;;;8.23;1.75;;;;;;;;;;5055882;28;20039;-66
2022/01/07 12:53:30;;;;;;;13.27;1.85;;;;;;;;;;5057566;28;20052;-67
2022/01/07 12:55:56;;;;;;;12.85;1.70;;;;;;;;;;5058267;28;20061;-66
2022/01/07 12:58:28;;;;;;;8.93;2.03;;;;;;;;;;5057695;28;20157;-67
2022/01/07 13:00:54;;;;;;;6.22;1.10;;;;;;;;;;5056147;28;20045;-67
2022/01/07 13:03:25;;;;;;;9.35;1.65;;;;;;;;;;5040139;28;20056;-68
2022/01/07 13:05:52;;;;;;;10.32;1.80;;;;;;;;;;5045307;28;20049;-66
2022/01/07 13:08:19;;;;;;;4.18;1.38;;;;;;;;;;5056668;28;20048;-67
2022/01/07 13:10:46;;;;;;;25.55;4.72;;;;;;;;;;5057868;28;20045;-67
2022/01/07 13:13:13;;;;;;;9.32;2.28;;;;;;;;;;5061503;28;20490;-67
2022/01/07 13:15:41;;;;;;;31.35;5.40;;;;;;;;;;5061180;28;20046;-67
2022/01/07 13:18:21;;;;;;;43.88;9.70;;;;;;;;;;5057189;28;20102;-67
2022/01/07 13:20:49;;;;;;;8.35;2.83;;;;;;;;;;5041008;28;20364;-67
2022/01/07 13:23:15;;;;;;;6.60;2.65;;;;;;;;;;5061213;28;20037;-67
2022/01/07 13:25:41;;;;;;;5.32;2.53;;;;;;;;;;5061822;28;20046;-67
2022/01/07 13:28:08;;;;;;;15.38;4.13;;;;;;;;;;5055425;28;20045;-66
2022/01/07 13:30:35;;;;;;;13.38;4.10;;;;;;;;;;5038393;28;20388;-66
2022/01/07 13:33:24;;;;;;;32.10;7.80;;;;;;;;;;5055219;28;20110;-66
2022/01/07 13:35:55;;;;;;;13.82;4.28;;;;;;;;;;5055250;28;20454;-66
2022/01/07 13:38:21;;;;;;;25.02;7.20;;;;;;;;;;5038544;28;20052;-65
2022/01/07 13:40:47;;;;;;;15.38;4.60;;;;;;;;;;5055520;28;20487;-66
2022/01/07 13:43:14;;;;;;;20.92;5.65;;;;;;;;;;5054497;28;20041;-66
2022/01/07 13:45:41;;;;;;;79.18;17.35;;;;;;;;;;5053050;28;20518;-67
2022/01/07 13:48:08;;;;;;;27.20;6.68;;;;;;;;;;5054811;28;20052;-67
2022/01/07 13:50:38;;;;;;;21.30;5.40;;;;;;;;;;5058225;28;20080;-67
2022/01/07 13:53:14;;;;;;;10.48;4.43;;;;;;;;;;5055735;28;20526;-67
2022/01/07 13:55:41;;;;;;;14.75;6.47;;;;;;;;;;5055609;28;20051;-66
2022/01/07 13:58:08;;;;;;;16.25;5.05;;;;;;;;;;5056085;28;20044;-68
2022/01/07 14:00:34;;;;;;;43.45;9.45;;;;;;;;;;5057339;28;20059;-67
2022/01/07 14:03:00;;;;;;;18.23;5.95;;;;;;;;;;5056460;28;20053;-66
2022/01/07 14:05:26;;;;;;;14.40;5.47;;;;;;;;;;5056035;28;20063;-66
2022/01/07 14:07:53;;;;;;;20.90;7.82;;;;;;;;;;5055278;28;20044;-66
2022/01/07 14:10:19;;;;;;;24.15;7.75;;;;;;;;;;5054204;28;20081;-67
2022/01/07 14:12:45;;;;;;;13.68;5.40;;;;;;;;;;5037580;28;20083;-67
2022/01/07 14:15:12;;;;;;;15.35;5.80;;;;;;;;;;5054847;28;20057;-67
2022/01/07 14:17:39;;;;;;;11.55;5.70;;;;;;;;;;5054465;28;20045;-66
2022/01/07 14:20:06;;;;;;;12.70;5.57;;;;;;;;;;5059525;28;20131;-67
2022/01/07 14:22:39;;;;;;;15.70;5.80;;;;;;;;;;5059867;28;20045;-66
2022/01/07 14:25:09;;;;;;;17.30;6.10;;;;;;;;;;5058891;28;20056;-66
2022/01/07 14:27:36;;;;;;;27.00;8.30;;;;;;;;;;5059024;28;20497;-66
2022/01/07 14:30:07;;;;;;;22.90;7.20;;;;;;;;;;5059603;28;20127;-66
2022/01/07 14:32:33;;;;;;;15.82;6.47;;;;;;;;;;5060077;28;20061;-66
2022/01/07 14:35:00;;;;;;;14.57;6.30;;;;;;;;;;5059865;28;20083;-66